Time;durP1;ratioP1;P1;durP2;ratioP2;P2;SDS_P1;SDS_P2;PMS_P1;PMS_P2;Temp;Humidity;BMP_temperature;BMP_pressure;BME280_temperature;BME280_humidity;BME280_pressure;Samples;Min_cycle;Max_cycle;Signal;HPM_P1;HPM_P2
2021/01/31 00:00:56;;;;;;;15.13;7.20;;;-0.30;99.90;;;;;;4203368;28;20468;-53
2021/01/31 00:02:58;;;;;;;14.60;6.77;;;-0.20;99.90;;;;;;4201889;28;20474;-52
2021/01/31 00:04:59;;;;;;;15.73;7.27;;;-0.30;99.90;;;;;;4201477;28;20545;-53
2021/01/31 00:07:00;;;;;;;14.93;7.37;;;-0.30;99.90;;;;;;4202037;28;21076;-52
2021/01/31 00:09:02;;;;;;;15.13;7.07;;;-0.30;99.90;;;;;;4203276;28;20475;-52
2021/01/31 00:11:04;;;;;;;16.17;7.33;;;-0.40;99.90;;;;;;4202139;28;20478;-52
2021/01/31 00:13:06;;;;;;;13.77;6.63;;;-0.40;99.90;;;;;;4204094;28;20470;-52
2021/01/31 00:15:13;;;;;;;16.37;7.70;;;-0.40;99.90;;;;;;4202480;28;20472;-52
2021/01/31 00:17:14;;;;;;;14.53;7.13;;;-0.40;99.90;;;;;;4202284;28;20476;-52
2021/01/31 00:19:15;;;;;;;16.70;7.33;;;-0.40;99.90;;;;;;4203097;28;20474;-52
2021/01/31 00:21:17;;;;;;;17.80;7.53;;;-0.50;99.90;;;;;;4202621;28;20526;-52
2021/01/31 00:23:18;;;;;;;16.87;6.87;;;-0.50;99.90;;;;;;4202561;28;20822;-52
2021/01/31 00:25:20;;;;;;;14.77;6.50;;;-0.50;99.90;;;;;;4202607;28;20544;-52
2021/01/31 00:27:22;;;;;;;18.47;7.73;;;-0.50;99.90;;;;;;4203692;28;21209;-52
2021/01/31 00:29:24;;;;;;;15.83;6.90;;;-0.50;99.90;;;;;;4203276;28;20502;-52
2021/01/31 00:31:27;;;;;;;16.47;7.60;;;-0.60;99.90;;;;;;4202654;28;20563;-52
2021/01/31 00:33:29;;;;;;;14.93;6.53;;;-0.60;99.90;;;;;;4202242;28;20466;-52
2021/01/31 00:35:33;;;;;;;17.57;7.40;;;-0.60;99.90;;;;;;4201892;28;20467;-52
2021/01/31 00:37:34;;;;;;;17.10;7.37;;;-0.60;99.90;;;;;;4202481;28;20565;-52
2021/01/31 00:39:35;;;;;;;18.17;8.03;;;-0.70;99.90;;;;;;4202161;28;20494;-55
2021/01/31 00:41:37;;;;;;;16.27;7.70;;;-0.70;99.90;;;;;;4202381;28;20483;-52
2021/01/31 00:43:38;;;;;;;17.88;7.97;;;-0.70;99.90;;;;;;4201419;28;20466;-52
2021/01/31 00:45:40;;;;;;;15.32;6.95;;;-0.70;99.90;;;;;;4202827;28;20229;-52
2021/01/31 00:47:42;;;;;;;15.70;6.97;;;-0.70;99.90;;;;;;4201691;28;20221;-52
2021/01/31 00:49:44;;;;;;;14.67;6.70;;;-0.70;99.90;;;;;;4202003;28;20486;-52
2021/01/31 00:51:47;;;;;;;13.90;6.17;;;-0.70;99.90;;;;;;4201674;28;20471;-52
2021/01/31 00:53:49;;;;;;;15.67;6.80;;;-0.70;99.90;;;;;;4202160;28;20475;-52
2021/01/31 00:55:50;;;;;;;14.03;6.80;;;-0.70;99.90;;;;;;4201632;28;20479;-53
2021/01/31 00:57:52;;;;;;;16.10;6.93;;;-0.70;99.90;;;;;;4203708;28;20494;-52
2021/01/31 00:59:53;;;;;;;13.30;6.67;;;-0.70;99.90;;;;;;4201922;28;20223;-52
2021/01/31 01:01:54;;;;;;;14.13;6.83;;;-0.70;99.90;;;;;;4200232;28;20473;-56
2021/01/31 01:03:57;;;;;;;15.83;6.73;;;-0.80;99.90;;;;;;4202216;28;21636;-51
2021/01/31 01:05:58;;;;;;;14.80;6.73;;;-0.70;99.90;;;;;;4203503;28;20997;-50
2021/01/31 01:08:00;;;;;;;15.13;6.60;;;-0.80;99.90;;;;;;4202954;28;20485;-52
2021/01/31 01:10:03;;;;;;;13.93;6.70;;;-0.80;99.90;;;;;;4199969;28;20494;-52
2021/01/31 01:12:05;;;;;;;15.40;7.00;;;-0.80;99.90;;;;;;4202445;28;20783;-52
2021/01/31 01:14:07;;;;;;;15.70;7.50;;;-0.90;99.90;;;;;;4200058;28;20464;-52
2021/01/31 01:16:08;;;;;;;14.07;6.60;;;-0.90;99.90;;;;;;4201661;28;20474;-53
2021/01/31 01:18:09;;;;;;;15.63;6.85;;;-0.90;99.90;;;;;;4201355;28;20464;-51
2021/01/31 01:20:13;;;;;;;15.83;7.07;;;-0.90;99.90;;;;;;4201943;28;20224;-52
2021/01/31 01:22:15;;;;;;;16.93;7.47;;;-0.90;99.90;;;;;;4202180;28;20483;-52
2021/01/31 01:24:16;;;;;;;14.10;6.43;;;-0.90;99.90;;;;;;4202248;28;20488;-53
2021/01/31 01:26:18;;;;;;;16.92;7.38;;;-0.90;99.90;;;;;;4202923;28;20309;-53
2021/01/31 01:28:19;;;;;;;13.93;6.33;;;-0.90;99.90;;;;;;4202251;28;20221;-54
2021/01/31 01:30:24;;;;;;;13.82;6.70;;;-0.90;99.90;;;;;;4201110;28;20467;-51
2021/01/31 01:32:25;;;;;;;14.88;7.10;;;-0.90;99.90;;;;;;4200960;28;20222;-51
2021/01/31 01:34:26;;;;;;;14.57;6.40;;;-0.90;99.90;;;;;;4201715;28;20213;-53
2021/01/31 01:36:28;;;;;;;14.77;7.20;;;-0.90;99.90;;;;;;4202972;28;20462;-52
2021/01/31 01:38:30;;;;;;;15.97;7.17;;;-0.90;99.90;;;;;;4201253;28;20555;-54
2021/01/31 01:40:34;;;;;;;13.50;6.60;;;-0.90;99.90;;;;;;4201743;28;20570;-56
2021/01/31 01:42:35;;;;;;;16.50;7.07;;;-0.90;99.90;;;;;;4201057;28;20475;-57
2021/01/31 01:44:38;;;;;;;15.07;6.70;;;-1.00;99.90;;;;;;4201795;28;20483;-57
2021/01/31 01:46:45;;;;;;;16.35;7.80;;;-1.00;99.90;;;;;;4200895;28;20487;-56
2021/01/31 01:48:47;;;;;;;14.63;6.82;;;-1.00;99.90;;;;;;4199161;28;20270;-56
2021/01/31 01:50:51;;;;;;;15.57;6.20;;;-1.00;99.90;;;;;;4201484;28;20217;-56
2021/01/31 01:52:56;;;;;;;17.63;7.50;;;-1.00;99.90;;;;;;4203639;28;20273;-56
2021/01/31 01:55:01;;;;;;;16.08;6.90;;;-1.00;99.90;;;;;;4202179;28;21207;-57
2021/01/31 01:57:06;;;;;;;16.08;7.38;;;-0.90;99.90;;;;;;4199974;28;20213;-56
2021/01/31 01:59:09;;;;;;;15.33;6.50;;;-1.00;99.90;;;;;;4201093;28;20221;-57
2021/01/31 02:01:11;;;;;;;18.80;7.43;;;-1.00;99.90;;;;;;4202227;28;20467;-56
2021/01/31 02:03:18;;;;;;;16.20;7.18;;;-1.00;99.90;;;;;;4201575;28;20213;-56
2021/01/31 02:05:19;;;;;;;16.65;7.20;;;-1.00;99.90;;;;;;4201195;28;20237;-57
2021/01/31 02:07:20;;;;;;;16.53;7.47;;;-1.00;99.90;;;;;;4201718;28;20214;-55
2021/01/31 02:09:23;;;;;;;14.30;6.22;;;-1.00;99.90;;;;;;4201877;28;20478;-57
2021/01/31 02:11:25;;;;;;;16.17;7.40;;;-1.00;99.90;;;;;;4203317;28;20236;-55
2021/01/31 02:13:27;;;;;;;14.48;6.10;;;-1.00;99.90;;;;;;4202186;28;20208;-54
2021/01/31 02:15:29;;;;;;;15.13;7.00;;;-1.00;99.90;;;;;;4203925;28;20213;-55
2021/01/31 02:17:43;;;;;;;15.15;6.40;;;-1.10;99.90;;;;;;4205088;28;20209;-55
2021/01/31 02:20:21;;;;;;;14.05;6.60;;;-1.10;99.90;;;;;;4202403;28;20213;-55
2021/01/31 02:22:56;;;;;;;16.53;6.87;;;-1.00;99.90;;;;;;4175682;28;20219;-54
2021/01/31 02:25:20;;;;;;;13.85;6.60;;;-1.10;99.90;;;;;;4206188;28;20514;-55
2021/01/31 02:27:57;;;;;;;15.80;6.65;;;-1.10;99.90;;;;;;4204615;28;20920;-55
2021/01/31 02:30:32;;;;;;;15.80;6.82;;;-1.10;99.90;;;;;;4204409;28;20217;-55
2021/01/31 02:33:32;;;;;;;12.33;6.40;;;-1.20;99.90;;;;;;4203583;28;20208;-54
2021/01/31 02:35:35;;;;;;;15.88;6.90;;;-1.20;99.90;;;;;;4203816;28;20458;-55
2021/01/31 02:37:42;;;;;;;14.73;6.32;;;-1.20;99.90;;;;;;4205884;28;20218;-56
2021/01/31 02:39:52;;;;;;;14.60;7.20;;;-1.20;99.90;;;;;;4204150;28;20217;-55
2021/01/31 02:42:14;;;;;;;15.38;6.85;;;-1.20;99.90;;;;;;4204586;28;21140;-54
2021/01/31 02:44:22;;;;;;;15.70;7.43;;;-1.30;99.90;;;;;;4204937;28;20212;-54
2021/01/31 02:46:28;;;;;;;15.55;7.43;;;-1.30;99.90;;;;;;4204429;28;20231;-54
2021/01/31 02:48:36;;;;;;;16.65;6.63;;;-1.30;99.90;;;;;;4203085;28;20209;-54
2021/01/31 02:50:43;;;;;;;13.30;6.47;;;-1.30;99.90;;;;;;4203100;28;20219;-54
2021/01/31 02:52:48;;;;;;;16.15;6.88;;;-1.30;99.90;;;;;;4203158;28;21997;-54
2021/01/31 02:54:54;;;;;;;16.15;7.25;;;-1.30;99.90;;;;;;4203772;28;20208;-55
2021/01/31 02:57:00;;;;;;;15.68;6.90;;;-1.40;99.90;;;;;;4201788;28;20601;-53
2021/01/31 02:59:05;;;;;;;16.07;7.40;;;-1.40;99.90;;;;;;4203666;28;20322;-54
2021/01/31 03:01:11;;;;;;;18.73;7.20;;;-1.40;99.90;;;;;;4204682;28;20475;-54
2021/01/31 03:03:18;;;;;;;17.27;7.03;;;-1.50;99.90;;;;;;4203723;28;20217;-54
2021/01/31 03:05:24;;;;;;;16.73;7.07;;;-1.50;99.90;;;;;;4203829;28;20229;-54
2021/01/31 03:07:31;;;;;;;14.63;6.95;;;-1.50;99.90;;;;;;4205967;28;20209;-54
2021/01/31 03:09:39;;;;;;;16.42;6.95;;;-1.60;99.90;;;;;;4204124;28;20220;-54
2021/01/31 03:11:46;;;;;;;17.90;7.38;;;-1.60;99.90;;;;;;4204744;28;20205;-57
2021/01/31 03:13:52;;;;;;;16.40;7.15;;;-1.70;99.90;;;;;;4205119;28;20212;-56
2021/01/31 03:15:58;;;;;;;18.20;7.50;;;-1.70;99.90;;;;;;4205523;28;20209;-59
2021/01/31 03:18:06;;;;;;;14.77;6.30;;;-1.80;99.90;;;;;;4203676;28;20217;-54
2021/01/31 03:20:12;;;;;;;17.58;7.28;;;-1.80;99.90;;;;;;4204345;28;20224;-54
2021/01/31 03:22:20;;;;;;;17.33;7.03;;;-1.70;99.90;;;;;;4206743;28;20213;-55
2021/01/31 03:24:29;;;;;;;17.30;6.85;;;-1.80;99.90;;;;;;4202396;28;20213;-55
2021/01/31 03:26:36;;;;;;;17.50;7.50;;;-1.70;99.90;;;;;;4203272;28;20217;-55
2021/01/31 03:28:37;;;;;;;17.45;7.45;;;-1.70;99.90;;;;;;4203098;28;20239;-55
2021/01/31 03:30:39;;;;;;;18.15;7.25;;;-1.80;99.90;;;;;;4203132;28;20225;-55
2021/01/31 03:32:46;;;;;;;17.23;8.07;;;-1.80;99.90;;;;;;4204136;28;20641;-55
2021/01/31 03:34:52;;;;;;;17.40;6.93;;;-1.80;99.90;;;;;;4202897;28;20228;-55
2021/01/31 03:36:59;;;;;;;17.70;7.03;;;-1.80;99.90;;;;;;4204414;28;20647;-55
2021/01/31 03:39:02;;;;;;;19.35;7.40;;;-1.80;99.90;;;;;;4202590;28;20233;-55
2021/01/31 03:41:07;;;;;;;18.75;7.20;;;-1.70;99.90;;;;;;4202735;28;20213;-55
2021/01/31 03:43:09;;;;;;;18.02;7.30;;;-1.80;99.90;;;;;;4206746;28;20220;-55
2021/01/31 03:45:12;;;;;;;16.20;6.75;;;-1.80;99.90;;;;;;4203625;28;20221;-55
2021/01/31 03:47:22;;;;;;;15.32;6.90;;;-1.80;99.90;;;;;;4202572;28;20564;-55
2021/01/31 03:49:28;;;;;;;15.57;6.97;;;-1.80;99.90;;;;;;4205881;28;20227;-55
2021/01/31 03:51:31;;;;;;;16.30;7.22;;;-1.90;99.90;;;;;;4202416;28;20306;-55
2021/01/31 03:53:32;;;;;;;16.70;7.00;;;-1.80;99.90;;;;;;4205601;28;20221;-55
2021/01/31 03:55:34;;;;;;;15.30;6.35;;;-1.90;99.90;;;;;;4202883;28;20278;-56
2021/01/31 03:57:41;;;;;;;15.52;6.95;;;-1.90;99.90;;;;;;4201202;28;20780;-55
2021/01/31 03:59:47;;;;;;;15.40;6.28;;;-1.90;99.90;;;;;;4201886;28;20209;-56
2021/01/31 04:01:51;;;;;;;16.67;7.85;;;-1.90;99.90;;;;;;4200890;28;20221;-55
2021/01/31 04:04:01;;;;;;;16.70;7.25;;;-2.00;99.90;;;;;;4203432;28;20224;-55
2021/01/31 04:06:06;;;;;;;15.43;6.93;;;-2.00;99.90;;;;;;4203548;28;20225;-55
2021/01/31 04:08:10;;;;;;;19.70;7.28;;;-1.90;99.90;;;;;;4204519;28;20212;-55
2021/01/31 04:10:13;;;;;;;14.45;6.65;;;-1.90;99.90;;;;;;4202576;28;20314;-55
2021/01/31 04:12:21;;;;;;;16.45;7.05;;;-1.90;99.90;;;;;;4200816;28;20213;-55
2021/01/31 04:14:26;;;;;;;18.38;7.68;;;-1.90;99.90;;;;;;4205382;28;20228;-56
2021/01/31 04:16:33;;;;;;;14.85;6.68;;;-1.90;99.90;;;;;;4203671;28;20209;-55
2021/01/31 04:18:34;;;;;;;14.15;6.50;;;-1.90;99.90;;;;;;4203414;28;20236;-56
2021/01/31 04:20:36;;;;;;;15.30;6.50;;;-1.90;99.90;;;;;;4205146;28;20221;-56
2021/01/31 04:22:37;;;;;;;14.70;6.20;;;-1.90;99.90;;;;;;4203054;28;20218;-55
2021/01/31 04:24:39;;;;;;;16.58;6.70;;;-1.90;99.90;;;;;;4202399;28;20566;-55
2021/01/31 04:26:40;;;;;;;15.68;6.15;;;-1.90;99.90;;;;;;4203883;28;20228;-55
2021/01/31 04:28:43;;;;;;;15.43;6.70;;;-2.00;99.90;;;;;;4203598;28;20233;-56
2021/01/31 04:30:46;;;;;;;14.57;6.47;;;-2.00;99.90;;;;;;4203233;28;20218;-56
2021/01/31 04:32:47;;;;;;;16.23;6.88;;;-1.90;99.90;;;;;;4200553;28;20267;-56
2021/01/31 04:34:48;;;;;;;15.48;6.70;;;-1.90;99.90;;;;;;4201986;28;20760;-55
2021/01/31 04:36:50;;;;;;;15.40;6.70;;;-1.90;99.90;;;;;;4200850;28;20209;-55
2021/01/31 04:38:51;;;;;;;16.27;6.50;;;-1.90;99.90;;;;;;4203439;28;20217;-55
2021/01/31 04:40:53;;;;;;;15.20;6.40;;;-1.90;99.90;;;;;;4203363;28;20234;-55
2021/01/31 04:42:54;;;;;;;13.95;6.75;;;-1.90;99.90;;;;;;4201151;28;20218;-55
2021/01/31 04:44:57;;;;;;;15.13;6.60;;;-1.90;99.90;;;;;;4201965;28;20225;-55
2021/01/31 04:47:05;;;;;;;17.90;6.82;;;-1.90;99.90;;;;;;4201639;28;20237;-54
2021/01/31 04:49:19;;;;;;;13.98;6.22;;;-1.90;99.90;;;;;;4201915;28;20215;-55
2021/01/31 04:51:32;;;;;;;15.93;6.47;;;-1.90;99.90;;;;;;4201564;28;20210;-55
2021/01/31 04:53:55;;;;;;;15.27;6.47;;;-1.90;99.90;;;;;;4203470;28;21036;-55
2021/01/31 04:56:11;;;;;;;15.80;6.75;;;-1.80;99.90;;;;;;4201525;28;20217;-55
2021/01/31 04:58:15;;;;;;;15.82;6.55;;;-1.90;99.90;;;;;;4201189;28;20240;-55
2021/01/31 05:00:22;;;;;;;15.35;6.43;;;-1.90;99.90;;;;;;4201897;28;20209;-55
2021/01/31 05:02:29;;;;;;;17.38;6.60;;;-1.90;99.90;;;;;;4202123;28;20295;-55
2021/01/31 05:04:33;;;;;;;14.55;6.00;;;-1.80;99.90;;;;;;4201796;28;20215;-55
2021/01/31 05:06:37;;;;;;;15.32;6.68;;;-1.80;99.90;;;;;;4202280;28;20235;-55
2021/01/31 05:08:39;;;;;;;13.15;6.05;;;-1.80;99.90;;;;;;4203648;28;20213;-55
2021/01/31 05:10:41;;;;;;;14.07;6.07;;;-1.80;99.90;;;;;;4201615;28;20236;-55
2021/01/31 05:12:46;;;;;;;18.25;6.60;;;-1.80;99.90;;;;;;4201983;28;20677;-55
2021/01/31 05:15:11;;;;;;;15.52;6.65;;;-1.80;99.90;;;;;;4200920;28;20221;-55
2021/01/31 05:17:17;;;;;;;16.10;6.95;;;-1.80;99.90;;;;;;4202738;28;20231;-55
2021/01/31 05:19:22;;;;;;;18.35;6.75;;;-1.80;99.90;;;;;;4200421;28;20229;-55
2021/01/31 05:21:27;;;;;;;15.30;6.50;;;-1.80;99.90;;;;;;4202096;28;20219;-55
2021/01/31 05:23:35;;;;;;;14.80;6.53;;;-1.80;99.90;;;;;;4201926;28;20213;-55
2021/01/31 05:25:37;;;;;;;13.90;6.28;;;-1.80;99.90;;;;;;4201077;28;20234;-56
2021/01/31 05:27:39;;;;;;;14.95;6.20;;;-1.80;99.90;;;;;;4199962;28;20226;-55
2021/01/31 05:29:41;;;;;;;15.27;5.97;;;-1.80;99.90;;;;;;4201528;28;20206;-56
2021/01/31 05:31:50;;;;;;;15.10;6.65;;;-1.80;99.90;;;;;;4201062;28;20213;-55
2021/01/31 05:33:55;;;;;;;14.27;6.32;;;-1.90;99.90;;;;;;4201767;28;20625;-55
2021/01/31 05:36:17;;;;;;;16.42;6.82;;;-1.90;99.90;;;;;;4201026;28;20285;-55
2021/01/31 05:38:36;;;;;;;15.45;6.30;;;-1.90;99.90;;;;;;4202033;28;20268;-55
2021/01/31 05:40:40;;;;;;;15.00;6.60;;;-1.90;99.90;;;;;;4201177;28;20750;-55
2021/01/31 05:42:44;;;;;;;14.88;6.20;;;-1.90;99.90;;;;;;4202720;28;20812;-56
2021/01/31 05:44:57;;;;;;;15.80;6.43;;;-1.90;99.90;;;;;;4201979;28;20225;-59
2021/01/31 05:47:01;;;;;;;16.50;6.45;;;-1.80;99.90;;;;;;4202921;28;20221;-56
2021/01/31 05:49:04;;;;;;;15.10;6.72;;;-1.80;99.90;;;;;;4207305;28;20548;-56
2021/01/31 05:51:14;;;;;;;13.82;6.13;;;-1.90;99.90;;;;;;4204858;28;20197;-55
2021/01/31 05:53:32;;;;;;;14.90;6.78;;;-1.90;99.90;;;;;;4205043;28;20224;-55
2021/01/31 05:55:33;;;;;;;13.27;6.10;;;-1.90;99.90;;;;;;4205739;28;20204;-55
2021/01/31 05:57:36;;;;;;;13.60;5.95;;;-1.90;99.90;;;;;;4205280;28;20252;-55
2021/01/31 05:59:39;;;;;;;16.50;7.00;;;-1.90;99.90;;;;;;4205228;28;20224;-55
2021/01/31 06:01:55;;;;;;;12.77;6.07;;;-2.00;99.90;;;;;;4205312;28;20892;-55
2021/01/31 06:04:11;;;;;;;14.35;6.43;;;-2.00;99.90;;;;;;4205716;28;20213;-55
2021/01/31 06:06:16;;;;;;;17.40;5.97;;;-2.00;99.90;;;;;;4204720;28;20237;-54
2021/01/31 06:08:27;;;;;;;19.15;7.30;;;-2.10;99.90;;;;;;4204812;28;20225;-55
2021/01/31 06:10:31;;;;;;;13.93;6.50;;;-2.10;99.90;;;;;;4205406;28;20237;-55
2021/01/31 06:12:32;;;;;;;13.57;5.88;;;-2.20;99.90;;;;;;4204557;28;20228;-55
2021/01/31 06:14:38;;;;;;;16.10;7.10;;;-2.20;99.90;;;;;;4203462;28;20212;-55
2021/01/31 06:16:41;;;;;;;17.00;6.82;;;-2.20;99.90;;;;;;4206862;28;20632;-55
2021/01/31 06:18:45;;;;;;;14.32;5.97;;;-2.20;99.90;;;;;;4204132;28;20738;-55
2021/01/31 06:20:48;;;;;;;16.13;6.60;;;-2.30;99.90;;;;;;4205189;28;20208;-55
2021/01/31 06:22:51;;;;;;;13.70;6.00;;;-2.30;99.90;;;;;;4205409;28;20205;-55
2021/01/31 06:24:54;;;;;;;13.85;6.28;;;-2.30;99.90;;;;;;4205392;28;20301;-55
2021/01/31 06:26:58;;;;;;;13.65;6.13;;;-2.30;99.90;;;;;;4205335;28;20263;-55
2021/01/31 06:29:04;;;;;;;14.32;6.30;;;-2.40;99.90;;;;;;4202525;28;20216;-55
2021/01/31 06:31:13;;;;;;;15.68;6.72;;;-2.40;99.90;;;;;;4206429;28;20934;-55
2021/01/31 06:33:15;;;;;;;19.23;7.05;;;-2.40;99.90;;;;;;4204493;28;20213;-54
2021/01/31 06:35:18;;;;;;;16.15;6.55;;;-2.50;99.90;;;;;;4204185;28;20637;-55
2021/01/31 06:37:36;;;;;;;16.17;6.20;;;-2.50;99.90;;;;;;4203222;28;20216;-55
2021/01/31 06:39:49;;;;;;;14.65;6.50;;;-2.60;99.90;;;;;;4204503;28;20693;-54
2021/01/31 06:42:17;;;;;;;15.25;6.65;;;-2.60;99.90;;;;;;4205959;28;20214;-55
2021/01/31 06:44:29;;;;;;;14.55;6.35;;;-2.70;99.90;;;;;;4204502;28;20220;-55
2021/01/31 06:46:42;;;;;;;13.98;6.60;;;-2.70;99.90;;;;;;4203842;28;20239;-55
2021/01/31 06:48:56;;;;;;;18.35;7.05;;;-2.70;99.90;;;;;;4204772;28;20213;-55
2021/01/31 06:51:37;;;;;;;16.75;7.13;;;-2.80;99.90;;;;;;4203409;28;20309;-55
2021/01/31 06:53:59;;;;;;;17.95;6.75;;;-2.80;99.90;;;;;;4185367;28;20210;-55
2021/01/31 06:56:24;;;;;;;15.82;6.47;;;-2.90;99.90;;;;;;4203022;28;21682;-55
2021/01/31 06:58:45;;;;;;;15.52;6.65;;;-2.90;99.90;;;;;;4204959;28;20253;-55
2021/01/31 07:01:28;;;;;;;16.48;6.72;;;-2.90;99.90;;;;;;4203336;28;20247;-55
2021/01/31 07:04:03;;;;;;;15.05;5.97;;;-3.00;99.90;;;;;;4203445;28;20209;-55
2021/01/31 07:06:25;;;;;;;14.45;6.22;;;-3.00;99.90;;;;;;4206141;28;20696;-54
2021/01/31 07:09:01;;;;;;;14.85;6.63;;;-3.10;99.90;;;;;;4202620;28;20649;-54
2021/01/31 07:11:26;;;;;;;14.77;5.97;;;-3.10;99.90;;;;;;4203743;28;20282;-54
2021/01/31 07:13:47;;;;;;;14.85;6.47;;;-3.10;99.90;;;;;;4206383;28;20270;-55
2021/01/31 07:15:57;;;;;;;16.38;6.88;;;-3.20;99.90;;;;;;4204801;28;20221;-54
2021/01/31 07:18:04;;;;;;;19.02;6.32;;;-3.20;99.90;;;;;;4205366;28;20751;-54
2021/01/31 07:20:11;;;;;;;15.98;6.40;;;-3.20;99.90;;;;;;4203657;28;20212;-54
2021/01/31 07:22:16;;;;;;;20.25;6.60;;;-3.20;99.90;;;;;;4202924;28;20214;-55
2021/01/31 07:24:23;;;;;;;20.88;7.47;;;-3.20;99.90;;;;;;4204248;28;20212;-54
2021/01/31 07:26:34;;;;;;;15.70;6.43;;;-3.20;99.90;;;;;;4206182;28;20225;-55
2021/01/31 07:28:40;;;;;;;17.95;7.10;;;-3.20;99.90;;;;;;4203335;28;20885;-54
2021/01/31 07:30:46;;;;;;;15.63;6.72;;;-3.10;99.90;;;;;;4203610;28;20256;-54
2021/01/31 07:32:57;;;;;;;16.15;6.85;;;-3.10;99.90;;;;;;4204083;28;20209;-54
2021/01/31 07:35:04;;;;;;;16.00;6.78;;;-3.00;99.90;;;;;;4201411;28;20476;-55
2021/01/31 07:37:11;;;;;;;18.63;6.38;;;-2.90;99.90;;;;;;4202101;28;20629;-54
2021/01/31 07:39:17;;;;;;;16.77;6.32;;;-2.80;99.90;;;;;;4201492;28;20209;-55
2021/01/31 07:41:20;;;;;;;16.20;6.65;;;-2.70;99.90;;;;;;4203323;28;20231;-54
2021/01/31 07:43:25;;;;;;;14.55;6.30;;;-2.60;99.90;;;;;;4202796;28;20216;-55
2021/01/31 07:45:28;;;;;;;14.60;6.28;;;-2.50;99.90;;;;;;4203891;28;20213;-54
2021/01/31 07:47:29;;;;;;;11.70;5.43;;;-2.50;99.90;;;;;;4200841;28;20216;-54
2021/01/31 07:50:00;;;;;;;15.70;7.00;;;-2.40;99.90;;;;;;4202834;28;20668;-54
2021/01/31 07:52:09;;;;;;;14.82;6.75;;;-2.30;99.90;;;;;;4202228;28;20209;-54
2021/01/31 07:54:23;;;;;;;18.88;6.65;;;-2.30;99.90;;;;;;4201951;28;20217;-54
2021/01/31 07:56:33;;;;;;;16.48;6.15;;;-2.20;99.90;;;;;;4202362;28;20205;-54
2021/01/31 07:58:38;;;;;;;13.55;6.28;;;-2.20;99.90;;;;;;4201639;28;20326;-55
2021/01/31 08:00:41;;;;;;;13.73;6.13;;;-2.20;99.90;;;;;;4202820;28;20217;-54
2021/01/31 08:02:45;;;;;;;13.75;5.85;;;-2.10;99.90;;;;;;4203688;28;20287;-55
2021/01/31 08:04:48;;;;;;;14.80;6.18;;;-2.10;99.90;;;;;;4201954;28;20617;-54
2021/01/31 08:06:51;;;;;;;15.02;6.47;;;-2.10;99.90;;;;;;4201794;28;20281;-54
2021/01/31 08:09:07;;;;;;;13.95;5.90;;;-2.10;99.90;;;;;;4201949;28;20263;-54
2021/01/31 08:11:28;;;;;;;15.65;6.25;;;-2.00;99.90;;;;;;4200300;28;20323;-55
2021/01/31 08:13:37;;;;;;;15.48;6.22;;;-2.00;99.90;;;;;;4201151;28;20221;-55
2021/01/31 08:15:41;;;;;;;15.02;6.13;;;-2.00;99.90;;;;;;4203105;28;20254;-55
2021/01/31 08:18:18;;;;;;;16.60;6.53;;;-1.90;99.90;;;;;;4201434;28;20227;-55
2021/01/31 08:20:44;;;;;;;15.30;5.45;;;-1.90;99.90;;;;;;4202031;28;20647;-55
2021/01/31 08:22:46;;;;;;;15.35;5.95;;;-1.80;99.90;;;;;;4202412;28;20209;-54
2021/01/31 08:25:03;;;;;;;15.30;6.47;;;-1.70;99.90;;;;;;4202726;28;20285;-54
2021/01/31 08:27:04;;;;;;;15.02;6.03;;;-1.60;99.90;;;;;;4202969;28;20882;-55
2021/01/31 08:29:27;;;;;;;16.95;6.72;;;-1.50;99.90;;;;;;4203197;28;20210;-54
2021/01/31 08:31:29;;;;;;;13.60;6.13;;;-1.40;99.90;;;;;;4203060;28;20210;-55
2021/01/31 08:33:31;;;;;;;14.33;5.93;;;-1.40;99.90;;;;;;4204257;28;20489;-55
2021/01/31 08:35:37;;;;;;;14.90;6.23;;;-1.20;99.90;;;;;;4201563;28;20938;-55
2021/01/31 08:37:38;;;;;;;13.37;6.17;;;-1.10;99.90;;;;;;4201557;28;20474;-55
2021/01/31 08:39:40;;;;;;;13.13;5.87;;;-0.90;99.90;;;;;;4200757;28;20524;-55
2021/01/31 08:41:43;;;;;;;16.83;6.50;;;-0.80;99.90;;;;;;4203282;28;20466;-55
2021/01/31 08:43:47;;;;;;;13.93;6.20;;;-0.70;99.90;;;;;;4202526;28;20625;-55
2021/01/31 08:45:50;;;;;;;13.47;6.17;;;-0.60;99.90;;;;;;4202623;28;20500;-55
2021/01/31 08:47:51;;;;;;;11.23;5.40;;;-0.50;99.90;;;;;;4201426;28;20491;-55
2021/01/31 08:49:57;;;;;;;12.23;5.80;;;-0.40;99.90;;;;;;4202624;28;20461;-55
2021/01/31 08:52:00;;;;;;;13.50;6.00;;;-0.40;99.90;;;;;;4201634;28;20474;-55
2021/01/31 08:54:06;;;;;;;11.03;5.57;;;-0.30;99.90;;;;;;4204394;28;21280;-55
2021/01/31 08:56:14;;;;;;;14.27;6.50;;;-0.20;99.90;;;;;;4203857;28;20464;-55
2021/01/31 08:58:16;;;;;;;14.87;6.53;;;-0.20;99.90;;;;;;4200831;28;20843;-54
2021/01/31 09:00:25;;;;;;;12.70;6.27;;;-0.10;99.90;;;;;;4204295;28;20475;-56
2021/01/31 09:02:27;;;;;;;12.73;5.67;;;-0.10;99.90;;;;;;4203377;28;20495;-54
2021/01/31 09:04:30;;;;;;;12.60;6.25;;;0.00;99.90;;;;;;4201416;28;20868;-55
2021/01/31 09:06:36;;;;;;;13.20;7.25;;;0.00;99.90;;;;;;4200137;28;20459;-54
2021/01/31 09:08:39;;;;;;;11.47;6.30;;;0.20;99.90;;;;;;4202705;28;20241;-55
2021/01/31 09:10:44;;;;;;;13.07;6.60;;;0.30;99.90;;;;;;4201097;28;20480;-55
2021/01/31 09:12:45;;;;;;;12.40;6.13;;;0.30;99.90;;;;;;4202039;28;20950;-55
2021/01/31 09:14:47;;;;;;;14.13;6.50;;;0.30;99.90;;;;;;4204057;28;20474;-55
2021/01/31 09:16:48;;;;;;;13.70;6.20;;;0.30;99.90;;;;;;4202216;28;20468;-55
2021/01/31 09:19:06;;;;;;;11.87;5.87;;;0.40;99.90;;;;;;4201993;28;20483;-55
2021/01/31 09:21:27;;;;;;;12.13;5.53;;;0.50;99.90;;;;;;4201259;28;20464;-57
2021/01/31 09:23:33;;;;;;;12.30;6.13;;;0.50;99.90;;;;;;4201311;28;20475;-55
2021/01/31 09:25:38;;;;;;;12.07;5.73;;;0.60;99.90;;;;;;4201710;28;20467;-55
2021/01/31 09:28:02;;;;;;;12.27;5.73;;;0.70;99.90;;;;;;4201442;28;20499;-55
2021/01/31 09:30:06;;;;;;;12.50;6.20;;;0.80;99.90;;;;;;4199765;28;20518;-55
2021/01/31 09:32:12;;;;;;;12.57;6.40;;;0.90;99.90;;;;;;4201506;28;20468;-57
2021/01/31 09:34:19;;;;;;;11.43;5.57;;;1.00;99.90;;;;;;4203443;28;20544;-55
2021/01/31 09:36:22;;;;;;;12.13;5.90;;;1.00;99.90;;;;;;4200975;28;20496;-55
2021/01/31 09:38:27;;;;;;;11.40;5.27;;;1.10;99.90;;;;;;4202151;28;20469;-55
2021/01/31 09:40:29;;;;;;;12.80;6.33;;;1.10;99.90;;;;;;4202434;28;20812;-55
2021/01/31 09:42:32;;;;;;;10.90;5.53;;;1.20;99.40;;;;;;4202008;28;20464;-55
2021/01/31 09:44:36;;;;;;;11.23;5.80;;;1.20;99.60;;;;;;4201742;28;20468;-55
2021/01/31 09:46:40;;;;;;;11.30;5.87;;;1.20;99.50;;;;;;4203139;28;20519;-55
2021/01/31 09:48:42;;;;;;;8.90;4.80;;;1.20;99.20;;;;;;4201460;28;20483;-55
2021/01/31 09:50:49;;;;;;;9.77;5.13;;;1.20;99.00;;;;;;4201293;28;20467;-55
2021/01/31 09:52:53;;;;;;;12.00;5.70;;;1.20;99.00;;;;;;4200814;28;20474;-55
2021/01/31 09:54:54;;;;;;;11.93;5.50;;;1.20;98.60;;;;;;4203409;28;20936;-55
2021/01/31 09:56:58;;;;;;;10.23;5.60;;;1.20;98.90;;;;;;4203084;28;20930;-56
2021/01/31 09:59:00;;;;;;;12.73;5.47;;;1.30;98.80;;;;;;4201347;28;20747;-55
2021/01/31 10:01:12;;;;;;;12.80;5.73;;;1.20;97.90;;;;;;4202314;28;20905;-54
2021/01/31 10:03:24;;;;;;;10.80;5.67;;;1.10;98.20;;;;;;4202984;28;20530;-56
2021/01/31 10:05:26;;;;;;;11.27;5.47;;;1.10;98.60;;;;;;4201405;28;20464;-55
2021/01/31 10:07:32;;;;;;;11.47;5.27;;;1.10;98.50;;;;;;4201787;28;21194;-56
2021/01/31 10:09:36;;;;;;;10.00;5.17;;;1.20;98.70;;;;;;4202680;28;20483;-58
2021/01/31 10:11:41;;;;;;;11.97;5.60;;;1.20;98.70;;;;;;4202026;28;20481;-55
2021/01/31 10:13:43;;;;;;;11.60;5.40;;;1.30;98.70;;;;;;4200842;28;20809;-55
2021/01/31 10:15:52;;;;;;;11.00;5.63;;;1.40;98.70;;;;;;4200980;28;20496;-55
2021/01/31 10:17:53;;;;;;;12.00;5.40;;;1.40;98.70;;;;;;4201070;28;20473;-55
2021/01/31 10:20:30;;;;;;;11.50;5.53;;;1.40;98.80;;;;;;4201117;28;20477;-54
2021/01/31 10:22:32;;;;;;;10.03;5.30;;;1.50;98.40;;;;;;4203150;28;20582;-55
2021/01/31 10:24:34;;;;;;;12.70;5.40;;;1.60;97.60;;;;;;4200551;28;20492;-55
2021/01/31 10:26:36;;;;;;;12.40;5.70;;;1.70;97.70;;;;;;4199804;28;21578;-56
2021/01/31 10:28:44;;;;;;;11.30;5.63;;;1.80;98.00;;;;;;4202216;28;20949;-56
2021/01/31 10:30:49;;;;;;;12.97;5.90;;;1.90;97.50;;;;;;4201874;28;20931;-58
2021/01/31 10:32:51;;;;;;;13.03;5.47;;;1.90;97.70;;;;;;4201893;28;20470;-56
2021/01/31 10:34:55;;;;;;;11.30;5.70;;;2.00;97.80;;;;;;4204681;28;20477;-60
2021/01/31 10:37:15;;;;;;;12.77;5.60;;;2.10;96.90;;;;;;4203334;28;20473;-58
2021/01/31 10:39:26;;;;;;;10.63;5.50;;;2.10;96.40;;;;;;4204016;28;20470;-57
2021/01/31 10:41:28;;;;;;;10.07;5.37;;;2.10;96.40;;;;;;4205087;28;20600;-56
2021/01/31 10:43:29;;;;;;;11.30;5.97;;;2.20;96.50;;;;;;4205698;28;20467;-56
2021/01/31 10:45:30;;;;;;;12.20;5.80;;;2.20;96.70;;;;;;4202400;28;20531;-56
2021/01/31 10:47:31;;;;;;;13.07;5.77;;;2.30;96.30;;;;;;4203596;28;21044;-56
2021/01/31 10:49:33;;;;;;;11.77;5.57;;;2.30;96.00;;;;;;4204196;28;20465;-57
2021/01/31 10:51:35;;;;;;;10.43;5.37;;;2.30;96.10;;;;;;4203367;28;20467;-56
2021/01/31 10:53:38;;;;;;;11.43;5.37;;;2.30;95.40;;;;;;4203710;28;20475;-57